createdAt,value
2018-12-01T00:01:07.848Z,100797.48
2018-12-01T00:03:36.799Z,100793.67
2018-12-01T00:06:05.971Z,100795.81
2018-12-01T00:08:34.996Z,100798.78
2018-12-01T00:11:04.137Z,100800.48
2018-12-01T00:13:33.092Z,100802.59
2018-12-01T00:16:02.061Z,100804.69
2018-12-01T00:18:31.148Z,100800.85
2018-12-01T00:21:00.325Z,100800.38
2018-12-01T00:23:29.198Z,100800.41
2018-12-01T00:25:58.067Z,100799.99
2018-12-01T00:28:26.902Z,100799.97
2018-12-01T00:30:55.910Z,100795.73
2018-12-01T00:33:24.748Z,100800.85
2018-12-01T00:35:53.733Z,100795.29
2018-12-01T00:38:22.776Z,100785.87
2018-12-01T00:40:51.844Z,100793.56
2018-12-01T00:43:20.863Z,100786.33
2018-12-01T00:45:49.725Z,100784.16
2018-12-01T00:48:18.419Z,100773.51
2018-12-01T00:50:47.417Z,100781.17
2018-12-01T00:53:16.188Z,100783.28
2018-12-01T00:55:45.185Z,100783.64
2018-12-01T00:58:14.063Z,100784.09
2018-12-01T01:00:43.098Z,100784.95
2018-12-01T01:04:41.527Z,100783.23
2018-12-01T01:07:10.323Z,100787.08
2018-12-01T01:09:39.433Z,100788.77
2018-12-01T01:12:09.159Z,100784.47
2018-12-01T01:14:37.919Z,100791.28
2018-12-01T01:17:06.817Z,100794.23
2018-12-01T01:19:35.775Z,100799.33
2018-12-01T01:22:04.583Z,100798.91
2018-12-01T01:24:34.245Z,100795.05
2018-12-01T01:27:03.745Z,100800.23
2018-12-01T01:29:32.832Z,100791.67
2018-12-01T01:32:01.704Z,100795.56
2018-12-01T01:34:30.678Z,100796.42
2018-12-01T01:37:00.603Z,100797.70
2018-12-01T01:39:29.535Z,100811.36
2018-12-01T01:41:58.934Z,100806.66
2018-12-01T01:44:27.753Z,100813.50
2018-12-01T01:46:56.701Z,100809.64
2018-12-01T01:49:25.587Z,100807.52
2018-12-01T01:51:54.248Z,100802.82
2018-12-01T01:54:22.947Z,100810.91
2018-12-01T01:56:51.771Z,100809.17
2018-12-01T01:59:20.510Z,100812.59
2018-12-01T02:01:49.193Z,100806.14
2018-12-01T02:04:18.413Z,100810.40
2018-12-01T02:06:47.103Z,100821.45
2018-12-01T02:09:15.975Z,100815.44
2018-12-01T02:11:44.753Z,100815.44
2018-12-01T02:14:13.440Z,100805.63
2018-12-01T02:16:42.328Z,100809.02
2018-12-01T02:19:11.147Z,100807.69
2018-12-01T02:21:40.050Z,100807.25
2018-12-01T02:24:09.602Z,100802.94
2018-12-01T02:26:38.758Z,100794.80
2018-12-01T02:29:08.470Z,100796.47
2018-12-01T02:31:37.219Z,100794.70
2018-12-01T02:34:07.367Z,100795.12
2018-12-01T02:36:36.263Z,100797.24
2018-12-01T02:39:06.237Z,100793.41
2018-12-01T02:41:35.112Z,100794.62
2018-12-01T02:44:14.900Z,100787.84
2018-12-01T02:46:54.779Z,100787.02
2018-12-01T02:49:23.474Z,100789.95
2018-12-01T02:51:52.204Z,100787.79
2018-12-01T02:54:21.096Z,100783.53
2018-12-01T02:56:49.888Z,100785.65
2018-12-01T02:59:18.750Z,100797.57
2018-12-01T03:01:47.472Z,100800.58
2018-12-01T03:04:16.244Z,100803.19
2018-12-01T03:06:44.902Z,100806.13
2018-12-01T03:09:13.762Z,100805.36
2018-12-01T03:11:42.521Z,100807.91
2018-12-01T03:14:11.764Z,100809.25
2018-12-01T03:16:41.016Z,100800.73
2018-12-01T03:19:09.952Z,100803.83
2018-12-01T03:21:38.798Z,100801.27
2018-12-01T03:24:07.780Z,100802.60
2018-12-01T03:26:36.714Z,100808.61
2018-12-01T03:29:05.715Z,100796.64
2018-12-01T03:31:34.348Z,100803.95
2018-12-01T03:34:03.133Z,100798.42
2018-12-01T03:36:31.916Z,100801.00
2018-12-01T03:39:00.826Z,100801.45
2018-12-01T03:41:29.880Z,100803.14
2018-12-01T03:43:58.744Z,100799.77
2018-12-01T03:46:27.470Z,100798.12
2018-12-01T03:48:56.323Z,100795.58
2018-12-01T03:51:25.178Z,100796.50
2018-12-01T03:53:54.213Z,100796.11
2018-12-01T03:56:23.784Z,100796.11
2018-12-01T03:58:52.529Z,100790.59
2018-12-01T04:01:21.442Z,100786.77
2018-12-01T04:03:50.277Z,100787.20
2018-12-01T04:06:19.317Z,100789.33
2018-12-01T04:08:48.215Z,100799.19
2018-12-01T04:11:17.158Z,100797.52
2018-12-01T04:13:46.957Z,100791.55
2018-12-01T04:16:15.912Z,100784.27
2018-12-01T04:18:44.801Z,100792.86
2018-12-01T04:21:13.623Z,100795.84
2018-12-01T04:23:43.038Z,100787.27
2018-12-01T04:26:12.462Z,100798.38
2018-12-01T04:28:41.229Z,100804.33
2018-12-01T04:31:10.050Z,100809.50
2018-12-01T04:33:38.732Z,100803.09
2018-12-01T04:36:07.572Z,100816.77
2018-12-01T04:38:36.315Z,100813.36
2018-12-01T04:41:05.166Z,100806.50
2018-12-01T04:43:33.912Z,100812.49
2018-12-01T04:46:02.674Z,100806.95
2018-12-01T04:48:31.567Z,100807.81
2018-12-01T04:51:00.423Z,100813.00
2018-12-01T04:53:29.307Z,100814.28
2018-12-01T04:55:58.080Z,100814.30
2018-12-01T04:58:27.089Z,100818.14
2018-12-01T05:00:56.109Z,100819.00
2018-12-01T05:03:24.873Z,100819.88
2018-12-01T05:05:53.848Z,100820.73
2018-12-01T05:08:22.609Z,100817.77
2018-12-01T05:10:51.420Z,100819.08
2018-12-01T05:13:20.313Z,100817.80
2018-12-01T05:15:49.284Z,100814.85
2018-12-01T05:18:18.182Z,100815.70
2018-12-01T05:20:47.094Z,100827.67
2018-12-01T05:23:15.969Z,100824.69
2018-12-01T05:25:44.983Z,100822.93
2018-12-01T05:28:14.166Z,100816.95
2018-12-01T05:30:43.368Z,100824.16
2018-12-01T05:33:13.682Z,100822.44
2018-12-01T05:35:42.486Z,100832.69
2018-12-01T05:38:13.054Z,100827.99
2018-12-01T05:40:42.008Z,100822.88
2018-12-01T05:43:10.894Z,100826.78
2018-12-01T05:45:39.772Z,100829.77
2018-12-01T05:48:08.679Z,100833.63
2018-12-01T05:50:37.625Z,100832.38
2018-12-01T05:53:06.542Z,100836.22
2018-12-01T05:55:35.545Z,100828.09
2018-12-01T05:58:04.647Z,100828.98
2018-12-01T06:00:33.594Z,100823.41
2018-12-01T06:03:03.141Z,100826.85
2018-12-01T06:05:32.140Z,100830.26
2018-12-01T06:08:00.938Z,100829.38
2018-12-01T06:10:29.706Z,100832.73
2018-12-01T06:13:01.372Z,100834.44
2018-12-01T06:15:30.723Z,100827.59
2018-12-01T06:17:59.514Z,100825.44
2018-12-01T06:20:28.272Z,100835.64
2018-12-01T06:22:57.274Z,100833.90
2018-12-01T06:25:27.245Z,100828.77
2018-12-01T06:27:56.058Z,100834.30
2018-12-01T06:30:25.095Z,100836.84
2018-12-01T06:32:53.964Z,100833.83
2018-12-01T06:35:23.226Z,100834.68
2018-12-01T06:37:51.919Z,100833.40
2018-12-01T06:40:22.237Z,100838.52
2018-12-01T06:42:51.174Z,100844.46
2018-12-01T06:45:20.334Z,100841.02
2018-12-01T06:47:49.337Z,100849.95
2018-12-01T06:50:22.683Z,100855.48
2018-12-01T06:52:52.644Z,100855.47
2018-12-01T06:55:22.323Z,100849.48
2018-12-01T06:57:51.166Z,100847.76
2018-12-01T07:00:22.212Z,100838.39
2018-12-01T07:02:51.229Z,100843.11
2018-12-01T07:05:20.405Z,100841.78
2018-12-01T07:07:49.158Z,100849.93
2018-12-01T07:10:20.310Z,100851.66
2018-12-01T07:12:53.635Z,100833.73
2018-12-01T07:15:26.313Z,100848.25
2018-12-01T07:17:55.186Z,100844.00
2018-12-01T07:20:24.258Z,100842.32
2018-12-01T07:22:52.978Z,100845.30
2018-12-01T07:25:22.094Z,100835.93
2018-12-01T07:27:51.216Z,100844.13
2018-12-01T07:30:20.229Z,100843.69
2018-12-01T07:32:50.738Z,100847.59
2018-12-01T07:35:19.970Z,100848.89
2018-12-01T07:37:49.897Z,100848.91
2018-12-01T07:40:19.520Z,100847.64
2018-12-01T07:42:48.237Z,100854.13
2018-12-01T07:45:18.253Z,100852.83
2018-12-01T07:47:46.980Z,100852.03
2018-12-01T07:50:17.900Z,100856.31
2018-12-01T07:52:50.485Z,100861.45
2018-12-01T07:55:19.317Z,100854.21
2018-12-01T07:57:48.266Z,100858.48
2018-12-01T08:00:18.698Z,100858.11
2018-12-01T08:02:49.503Z,100851.68
2018-12-01T08:05:18.363Z,100846.53
2018-12-01T08:07:47.465Z,100845.25
2018-12-01T08:10:16.902Z,100843.55
2018-12-01T08:12:45.947Z,100846.48
2018-12-01T08:15:18.690Z,100847.73
2018-12-01T08:17:48.261Z,100847.32
2018-12-01T08:20:17.884Z,100845.65
2018-12-01T08:22:48.636Z,100843.92
2018-12-01T08:25:19.490Z,100845.20
2018-12-01T08:27:52.715Z,100833.70
2018-12-01T08:30:22.938Z,100826.44
2018-12-01T08:32:51.884Z,100831.55
2018-12-01T08:35:21.153Z,100837.94
2018-12-01T08:37:49.846Z,100848.19
2018-12-01T08:40:20.157Z,100853.29
2018-12-01T08:42:49.146Z,100856.75
2018-12-01T08:45:18.267Z,100860.25
2018-12-01T08:47:47.137Z,100859.39
2018-12-01T08:50:18.315Z,100855.20
2018-12-01T08:52:47.295Z,100850.57
2018-12-01T08:55:18.247Z,100840.75
2018-12-01T08:57:47.304Z,100837.77
2018-12-01T09:00:19.888Z,100838.15
2018-12-01T09:02:50.324Z,100838.14
2018-12-01T09:05:19.490Z,100844.09
2018-12-01T09:07:48.313Z,100849.66
2018-12-01T09:10:17.189Z,100848.38
2018-12-01T09:12:46.604Z,100857.33
2018-12-01T09:15:15.787Z,100852.62
2018-12-01T09:17:44.784Z,100846.62
2018-12-01T09:20:15.146Z,100853.91
2018-12-01T09:22:45.214Z,100859.06
2018-12-01T09:25:17.150Z,100846.22
2018-12-01T09:27:47.310Z,100851.77
2018-12-01T09:30:21.779Z,100850.06
2018-12-01T09:32:50.728Z,100841.09
2018-12-01T09:35:19.622Z,100839.89
2018-12-01T09:37:48.676Z,100843.33
2018-12-01T09:40:18.488Z,100840.39
2018-12-01T09:42:47.587Z,100838.73
2018-12-01T09:45:19.242Z,100837.06
2018-12-01T09:47:49.247Z,100832.42
2018-12-01T09:50:18.965Z,100828.61
2018-12-01T09:52:50.168Z,100833.76
2018-12-01T09:55:21.751Z,100839.77
2018-12-01T09:57:52.530Z,100839.33
2018-12-01T10:00:24.666Z,100839.75
2018-12-01T10:02:53.643Z,100835.06
2018-12-01T10:05:28.274Z,100828.20
2018-12-01T10:07:57.358Z,100839.40
2018-12-01T10:10:28.627Z,100833.84
2018-12-01T10:12:58.417Z,100830.42
2018-12-01T10:15:30.370Z,100832.95
2018-12-01T10:17:59.444Z,100820.96
2018-12-01T10:20:32.786Z,100822.25
2018-12-01T10:23:04.293Z,100820.14
2018-12-01T10:25:33.848Z,100822.70
2018-12-01T10:28:02.800Z,100825.72
2018-12-01T10:30:31.808Z,100821.01
2018-12-01T10:33:00.735Z,100826.58
2018-12-01T10:35:30.215Z,100824.43
2018-12-01T10:38:01.517Z,100821.84
2018-12-01T10:40:30.497Z,100829.55
2018-12-01T10:42:59.384Z,100817.13
2018-12-01T10:45:28.173Z,100820.55
2018-12-01T10:47:57.354Z,100813.27
2018-12-01T10:50:26.107Z,100811.13
2018-12-01T10:52:55.843Z,100806.84
2018-12-01T10:55:30.823Z,100808.56
2018-12-01T10:58:30.699Z,100820.13
2018-12-01T11:01:04.863Z,100811.98
2018-12-01T11:03:38.805Z,100817.55
2018-12-01T11:06:10.210Z,100811.14
2018-12-01T11:08:39.056Z,100813.28
2018-12-01T11:11:08.142Z,100814.97
2018-12-01T11:13:37.107Z,100812.85
2018-12-01T11:16:07.459Z,100811.56
2018-12-01T11:18:36.542Z,100808.56
2018-12-01T11:21:05.972Z,100796.61
2018-12-01T11:23:34.995Z,100796.61
2018-12-01T11:26:04.133Z,100794.02
2018-12-01T11:28:33.049Z,100790.17
2018-12-01T11:31:02.140Z,100789.30
2018-12-01T11:33:31.091Z,100788.43
2018-12-01T11:35:59.835Z,100795.27
2018-12-01T11:38:28.693Z,100790.55
2018-12-01T11:40:57.416Z,100785.84
2018-12-01T11:43:26.719Z,100781.99
2018-12-01T11:45:55.544Z,100778.16
2018-12-01T11:48:24.362Z,100781.59
2018-12-01T11:50:53.162Z,100777.73
2018-12-01T11:53:22.091Z,100776.03
2018-12-01T11:55:51.214Z,100774.75
2018-12-01T11:58:20.014Z,100779.91
2018-12-01T12:00:48.714Z,100771.75
2018-12-01T12:03:17.397Z,100769.61
2018-12-01T12:05:46.211Z,100772.16
2018-12-01T12:08:19.168Z,100765.70
2018-12-01T12:10:48.456Z,100767.80
2018-12-01T12:13:17.373Z,100758.76
2018-12-01T12:15:46.278Z,100750.13
2018-12-01T12:18:15.320Z,100750.92
2018-12-01T12:20:44.225Z,100744.44
2018-12-01T12:23:12.934Z,100740.94
2018-12-01T12:25:41.859Z,100751.17
2018-12-01T12:28:10.548Z,100752.44
2018-12-01T12:30:39.558Z,100750.27
2018-12-01T12:33:08.790Z,100743.73
2018-12-01T12:35:37.604Z,100742.76
2018-12-01T12:38:07.066Z,100743.92
2018-12-01T12:40:36.103Z,100748.95
2018-12-01T12:43:05.155Z,100743.66
2018-12-01T12:45:34.069Z,100738.07
2018-12-01T12:48:03.376Z,100738.50
2018-12-01T12:50:32.233Z,100724.00
2018-12-01T12:53:01.181Z,100722.36
2018-12-01T12:55:30.820Z,100722.78
2018-12-01T12:58:01.307Z,100724.93
2018-12-01T13:00:30.203Z,100718.66
2018-12-01T13:03:03.582Z,100716.20
2018-12-01T13:05:42.174Z,100719.70
2018-12-01T13:08:12.043Z,100719.34
2018-12-01T13:10:41.257Z,100707.87
2018-12-01T13:13:10.033Z,100707.04
2018-12-01T13:15:39.517Z,100710.46
2018-12-01T13:18:12.759Z,100708.77
2018-12-01T13:20:43.616Z,100706.65
2018-12-01T13:23:12.491Z,100701.13
2018-12-01T13:25:42.574Z,100705.03
2018-12-01T13:28:13.067Z,100705.45
2018-12-01T13:30:47.263Z,100713.59
2018-12-01T13:33:16.413Z,100714.87
2018-12-01T13:35:45.230Z,100710.08
2018-12-01T13:38:14.184Z,100710.48
2018-12-01T13:40:43.093Z,100705.63
2018-12-01T13:43:12.108Z,100704.55
2018-12-01T13:45:40.956Z,100701.94
2018-12-01T13:48:10.392Z,100702.04
2018-12-01T13:50:39.294Z,100696.18
2018-12-01T13:53:10.546Z,100695.90
2018-12-01T13:55:40.948Z,100699.86
2018-12-01T13:58:09.640Z,100711.91
2018-12-01T14:00:39.125Z,100708.06
2018-12-01T14:03:09.792Z,100711.10
2018-12-01T14:05:39.384Z,100711.98
2018-12-01T14:08:09.135Z,100713.73
2018-12-01T14:10:47.797Z,100714.60
2018-12-01T14:13:16.885Z,100717.63
2018-12-01T14:15:45.903Z,100710.80
2018-12-01T14:18:15.315Z,100712.48
2018-12-01T14:20:45.258Z,100715.06
2018-12-01T14:23:14.922Z,100713.38
2018-12-01T14:25:46.814Z,100707.81
2018-12-01T14:28:16.824Z,100705.69
2018-12-01T14:30:46.285Z,100704.41
2018-12-01T14:33:16.373Z,100706.16
2018-12-01T14:35:44.397Z,100705.73
2018-12-01T14:38:14.984Z,100716.00
2018-12-01T14:40:44.916Z,100715.57
2018-12-01T14:43:14.268Z,100718.15
2018-12-01T14:45:44.423Z,100720.75
2018-12-01T14:48:14.531Z,100717.34
2018-12-01T14:50:48.301Z,100712.64
2018-12-01T14:53:13.720Z,100714.38
2018-12-01T14:55:44.901Z,100703.24
2018-12-01T14:58:14.117Z,100706.68
2018-12-01T15:00:43.262Z,100703.22
2018-12-01T15:03:12.143Z,100704.48
2018-12-01T15:05:41.918Z,100696.33
2018-12-01T15:08:11.667Z,100684.77
2018-12-01T15:10:40.546Z,100688.63
2018-12-01T15:13:10.458Z,100683.93
2018-12-01T15:15:39.535Z,100689.95
2018-12-01T15:18:08.464Z,100692.95
2018-12-01T15:20:38.132Z,100689.95
2018-12-01T15:23:08.063Z,100690.83
2018-12-01T15:25:37.620Z,100692.59
2018-12-01T15:28:07.992Z,100690.87
2018-12-01T15:30:37.148Z,100694.31
2018-12-01T15:33:09.599Z,100690.05
2018-12-01T15:35:38.581Z,100686.58
2018-12-01T15:38:09.550Z,100683.18
2018-12-01T15:40:39.634Z,100678.47
2018-12-01T15:43:08.770Z,100672.06
2018-12-01T15:45:37.767Z,100672.91
2018-12-01T15:48:07.559Z,100668.20
2018-12-01T15:50:36.524Z,100663.92
2018-12-01T15:53:07.616Z,100662.66
2018-12-01T15:55:37.478Z,100657.94
2018-12-01T15:58:07.090Z,100653.66
2018-12-01T16:00:36.769Z,100647.66
2018-12-01T16:03:05.781Z,100642.11
2018-12-01T16:05:34.631Z,100642.97
2018-12-01T16:08:03.423Z,100637.83
2018-12-01T16:10:32.509Z,100636.14
2018-12-01T16:13:07.417Z,100634.41
2018-12-01T16:15:38.684Z,100637.39
2018-12-01T16:18:08.520Z,100642.95
2018-12-01T16:20:37.454Z,100633.13
2018-12-01T16:23:06.536Z,100632.69
2018-12-01T16:25:35.742Z,100624.55
2018-12-01T16:28:04.502Z,100618.15
2018-12-01T16:30:35.348Z,100616.45
2018-12-01T16:33:19.435Z,100601.48
2018-12-01T16:35:50.728Z,100599.77
2018-12-01T16:38:30.038Z,100598.48
2018-12-01T16:41:00.727Z,100596.37
2018-12-01T16:43:33.679Z,100595.52
2018-12-01T16:46:02.896Z,100595.08
2018-12-01T16:48:33.255Z,100592.09
2018-12-01T16:51:02.551Z,100593.78
2018-12-01T16:53:31.549Z,100595.06
2018-12-01T16:56:00.574Z,100595.08
2018-12-01T16:58:29.443Z,100594.22
2018-12-01T17:00:59.123Z,100580.53
2018-12-01T17:03:28.145Z,100586.09
2018-12-01T17:05:58.867Z,100586.09
2018-12-01T17:08:28.088Z,100585.67
2018-12-01T17:10:57.897Z,100578.42
2018-12-01T17:13:26.875Z,100574.98
2018-12-01T17:15:56.502Z,100572.44
2018-12-01T17:18:25.456Z,100570.31
2018-12-01T17:20:54.509Z,100568.16
2018-12-01T17:23:23.726Z,100560.48
2018-12-01T17:25:53.193Z,100559.60
2018-12-01T17:28:22.346Z,100572.87
2018-12-01T17:30:51.706Z,100575.41
2018-12-01T17:33:20.882Z,100568.16
2018-12-01T17:35:49.841Z,100572.45
2018-12-01T17:38:20.119Z,100566.88
2018-12-01T17:40:52.128Z,100571.14
2018-12-01T17:43:26.926Z,100570.30
2018-12-01T17:45:56.165Z,100566.03
2018-12-01T17:48:25.427Z,100557.92
2018-12-01T17:50:54.499Z,100556.19
2018-12-01T17:53:23.608Z,100556.63
2018-12-01T17:55:52.920Z,100554.48
2018-12-01T17:58:22.284Z,100563.45
2018-12-01T18:00:51.337Z,100567.30
2018-12-01T18:03:20.260Z,100564.75
2018-12-01T18:05:50.407Z,100565.59
2018-12-01T18:08:22.678Z,100570.72
2018-12-01T18:10:53.011Z,100566.88
2018-12-01T18:13:22.551Z,100565.60
2018-12-01T18:15:51.666Z,100562.60
2018-12-01T18:18:21.152Z,100558.35
2018-12-01T18:20:50.087Z,100550.20
2018-12-01T18:23:20.266Z,100555.76
2018-12-01T18:25:54.024Z,100549.80
2018-12-01T18:28:27.127Z,100557.05
2018-12-01T18:30:56.898Z,100555.78
2018-12-01T18:33:29.430Z,100546.38
2018-12-01T18:35:58.372Z,100545.95
2018-12-01T18:38:27.453Z,100545.09
2018-12-01T18:40:56.451Z,100539.53
2018-12-01T18:43:25.607Z,100536.53
2018-12-01T18:45:56.804Z,100527.56
2018-12-01T18:48:25.818Z,100521.59
2018-12-01T18:50:56.071Z,100527.56
2018-12-01T18:53:25.263Z,100512.61
2018-12-01T18:55:55.813Z,100513.91
2018-12-01T18:58:24.955Z,100512.19
2018-12-01T19:00:56.398Z,100503.64
2018-12-01T19:03:27.734Z,100506.20
2018-12-01T19:05:57.549Z,100502.80
2018-12-01T19:08:26.641Z,100492.55
2018-12-01T19:10:55.539Z,100494.27
2018-12-01T19:13:24.614Z,100478.03
2018-12-01T19:15:54.025Z,100479.31
2018-12-01T19:18:23.105Z,100474.16
2018-12-01T19:20:52.397Z,100475.02
2018-12-01T19:23:21.562Z,100470.77
2018-12-01T19:25:51.609Z,100471.19
2018-12-01T19:28:36.256Z,100464.76
2018-12-01T19:31:06.563Z,100456.23
2018-12-01T19:33:37.113Z,100463.05
2018-12-01T19:36:06.253Z,100456.21
2018-12-01T19:38:35.352Z,100445.09
2018-12-01T19:41:04.664Z,100451.95
2018-12-01T19:43:33.772Z,100454.06
2018-12-01T19:46:02.949Z,100454.08
2018-12-01T19:48:31.981Z,100441.24
2018-12-01T19:51:00.978Z,100434.83
2018-12-01T19:53:29.984Z,100431.02
2018-12-01T19:55:58.967Z,100431.41
2018-12-01T19:58:30.003Z,100420.73
2018-12-01T20:00:59.771Z,100428.86
2018-12-01T20:03:31.961Z,100418.59
2018-12-01T20:06:00.896Z,100414.31
2018-12-01T20:08:30.031Z,100410.89
2018-12-01T20:11:03.554Z,100413.03
2018-12-01T20:13:43.054Z,100401.91
2018-12-01T20:16:24.187Z,100401.51
2018-12-01T20:18:53.908Z,100395.08
2018-12-01T20:21:23.895Z,100389.95
2018-12-01T20:23:52.806Z,100384.83
2018-12-01T20:26:21.577Z,100371.16
2018-12-01T20:35:48.204Z,100350.21
2018-12-01T20:38:38.611Z,100342.52
2018-12-01T20:41:07.499Z,100338.72
2018-12-01T20:43:36.527Z,100326.36
2018-12-01T20:46:05.831Z,100317.80
2018-12-01T20:48:34.774Z,100312.67
2018-12-01T20:51:04.992Z,100315.23
2018-12-01T20:53:33.985Z,100310.53
2018-12-01T20:56:04.462Z,100307.55
2018-12-01T20:58:33.386Z,100301.58
2018-12-01T21:01:02.221Z,100291.73
2018-12-01T21:03:30.950Z,100298.55
2018-12-01T21:05:59.888Z,100288.70
2018-12-01T21:08:29.028Z,100285.25
2018-12-01T21:11:00.364Z,100297.59
2018-12-01T21:13:29.311Z,100283.90
2018-12-01T21:15:58.270Z,100287.74
2018-12-01T21:18:27.149Z,100287.70
2018-12-01T21:20:56.002Z,100282.97
2018-12-01T21:23:25.384Z,100271.87
2018-12-01T21:25:54.608Z,100265.86
2018-12-01T21:28:24.287Z,100251.79
2018-12-01T21:30:53.401Z,100263.34
2018-12-01T21:33:30.369Z,100251.36
2018-12-01T21:36:00.465Z,100259.05
2018-12-01T21:38:30.002Z,100259.48
2018-12-01T21:40:59.482Z,100249.63
2018-12-01T21:44:58.184Z,100251.77
2018-12-01T21:47:27.211Z,100238.95
2018-12-01T21:49:56.286Z,100234.67
2018-12-01T21:52:25.300Z,100226.54
2018-12-01T21:54:55.205Z,100221.84
2018-12-01T21:57:24.136Z,100215.00
2018-12-01T21:59:53.481Z,100218.88
2018-12-01T22:02:22.760Z,100211.20
2018-12-01T22:04:51.763Z,100212.89
2018-12-01T22:07:20.458Z,100206.45
2018-12-01T22:09:49.271Z,100196.62
2018-12-01T22:12:18.092Z,100187.61
2018-12-01T22:14:47.114Z,100188.44
2018-12-01T22:17:16.061Z,100168.80
2018-12-01T22:19:44.812Z,100180.34
2018-12-01T22:22:15.492Z,100179.89
2018-12-01T22:24:43.322Z,100183.28
2018-12-01T22:27:12.498Z,100177.33
2018-12-01T22:29:41.353Z,100174.73
2018-12-01T22:32:11.677Z,100168.71
2018-12-01T22:34:40.640Z,100168.71
2018-12-01T22:37:09.458Z,100165.69
2018-12-01T22:39:38.273Z,100144.34
2018-12-01T22:42:07.164Z,100147.30
2018-12-01T22:44:35.902Z,100153.72
2018-12-01T22:47:04.897Z,100146.02
2018-12-01T22:49:34.169Z,100143.45
2018-12-01T22:52:03.641Z,100144.30
2018-12-01T22:54:35.235Z,100144.73
2018-12-01T22:57:07.738Z,100140.42
2018-12-01T22:59:36.938Z,100130.20
2018-12-01T23:02:07.056Z,100124.20
2018-12-01T23:04:35.879Z,100126.38
2018-12-01T23:07:04.842Z,100122.10
2018-12-01T23:09:33.605Z,100125.06
2018-12-01T23:12:02.754Z,100124.20
2018-12-01T23:14:31.748Z,100126.31
2018-12-01T23:17:01.312Z,100119.90
2018-12-01T23:19:30.478Z,100116.05
2018-12-01T23:21:59.415Z,100115.66
2018-12-01T23:24:28.091Z,100113.48
2018-12-01T23:26:57.096Z,100110.91
2018-12-01T23:29:25.789Z,100102.36
2018-12-01T23:31:54.746Z,100099.37
2018-12-01T23:34:24.146Z,100104.93
2018-12-01T23:36:53.392Z,100104.05
2018-12-01T23:39:22.441Z,100089.50
2018-12-01T23:41:53.169Z,100098.52
2018-12-01T23:44:30.350Z,100095.06
2018-12-01T23:46:59.287Z,100089.06
2018-12-01T23:49:28.216Z,100081.77
2018-12-01T23:51:57.312Z,100082.62
2018-12-01T23:54:26.331Z,100078.77
2018-12-01T23:56:55.297Z,100077.06
2018-12-01T23:59:24.254Z,100080.02
